SiktMolnbas
>≥ 10km≥ 10km ≥ 2000ft≥ 2000ft
< 10km< 10km < 2000ft< 2000ft
< 8km< 8km < 1500ft< 1500ft
< 5km< 5km < 1000ft< 1000ft
< 3km< 3km < 500ft< 500ft

Nytt 18 jan 2017:

Nytt 17 jan 2017:

ESNQ (06:50 UTC)

Kiruna flygplats

METAR

ESNQ 200650Z AUTO 29015KT 9999 NCD M04/M09 Q0986=

TAF

SHSNCB

ESNQ 200530Z 2006/2015 30013G23KT CAVOK BECMG 2010/2012 32020G35KT PROB40 2011/2015 2000 SHSN BKN040CB=

ESNG (06:50 UTC)

Gällivare (Kavaheden), Lapland Airport

METAR

ESNG 200650Z 32007KT CAVOK M07/M11 Q0987=

TAF

ESNG 200530Z 2006/2015 28012KT CAVOK BECMG 2011/2013 32017G30KT=

ESPA (06:50 UTC)

Luleå Airport (Kallax)

METAR

ESPA 200650Z 32015KT CAVOK M03/M10 Q0990=

TAF

ESPA 200530Z 2006/2015 33012KT CAVOK RMK MIL=

ESNL (06:50 UTC)

Lycksele flygplats

METAR

ESNL 200650Z AUTO 30017KT 9999 NCD M05/M11 Q0993=

TAF

Ingen TAF hittades.

ESNU (06:50 UTC)

Umeå City Airport

METAR

ESNU 200650Z 32017KT CAVOK M02/M09 Q0991=

TAF

ESNU 200530Z 2006/2015 33016G26KT CAVOK BECMG 2014/2015 34020G36KT=

ESNO (06:50 UTC)

Örnsköldsvik flygplats

METAR

ESNO 200650Z 33019G33KT 300V360 CAVOK M03/M10 Q0992=

TAF

ESNO 200530Z 2006/2010 33015G25KT CAVOK=

ESNK (06:50 UTC)

Kramfors-Sollefteå flygplats

METAR

ESNK 200650Z AUTO 34020KT 9999 NCD M02/M11 Q0995=

TAF

Ingen TAF hittades.

ESNN (06:50 UTC)

Sundsvall-Härnösands flygplats (Midlanda)

METAR

ESNN 200650Z AUTO 33024G35KT 9999 NCD M01/M11 Q0995=

TAF

ESNN 200430Z 2005/2007 33020G32KT CAVOK=

ESNZ (06:50 UTC)

Åre Östersund Airport (Frösön)

METAR

ESNZ 200650Z 31015KT CAVOK M06/M10 Q0999=

TAF

SN

ESNZ 200530Z 2006/2015 33020G30KT CAVOK PROB40 2009/2015 2000 SN VV012=

ESNS (06:50 UTC)

Skellefteå flygplats

METAR

ESNS 200650Z 31014KT 290V350 CAVOK M03/M10 Q0991=

TAF

ESNS 200530Z 2006/2015 31015KT CAVOK BECMG 2013/2015 32017G30KT=

ESGT (06:50 UTC)

Trollhättan-Vänersborgs flygplats (Malöga flygplats)

METAR

ESGT 200650Z 32017KT CAVOK M01/M08 Q1005=

TAF

ESGT 200630Z 2007/2015 33018G28KT CAVOK=

ESGP (06:50 UTC)

Göteborg City Airport (Säve)

METAR

ESGP 200650Z AUTO 33018KT 9999 NCD 02/M08 Q1006=

TAF

Ingen TAF hittades.

ESGG (06:50 UTC)

Göteborg-Landvetter flygplats

METAR

ESGG 200650Z 33018KT 9999 SCT096 M01/M09 Q1005=

TAF

ESGG 200530Z 2006/2106 33016G30KT CAVOK BECMG 2016/2018 33010KT=

ESMT (06:50 UTC)

Halmstads flygplats

METAR

ESMT 200650Z 33014KT CAVOK M01/M08 Q1005=

TAF

CB

ESMT 200531Z 2006/2015 34015KT 9999 FEW030 TEMPO 2006/2012 34018G30KT FEW020CB=

ESTA (06:50 UTC)

Ängelholm-Helsingborg flygplats

METAR

ESTA 200650Z 33024KT CAVOK 01/M09 Q1005=

TAF

SHSNCB

ESTA 200531Z 2006/2015 32020KT 9999 SCT030 TEMPO 2006/2015 34022G38KT 2000 SHSN FEW020CB=

ESTL (06:50 UTC)

Ljungbyheds flygplats

METAR

ESTL 200650Z AUTO 33019G31KT 9999 NCD 00/M09 Q1005=

TAF

SHSNCB

ESTL 200636Z 2007/2015 33017KT 9999 SCT030 TEMPO 2007/2009 33017G27KT 2000 -SHSN FEW020CB=

ESMS (06:50 UTC)

Malmö Airport

METAR

ESMS 200650Z 31016KT 9999 FEW016 SCT040 M00/M03 Q1004=

TAF

SHSNCB

ESMS 200520Z 2006/2106 31015KT 9999 SCT030 TEMPO 2006/2010 31022G35KT 2000 -SHSN BKN020CB TEMPO 2010/2015 32018G30KT=

ESMK (06:50 UTC)

Kristianstad Airport

METAR

ESMK 200650Z 31015KT CAVOK M00/M08 Q1003=

TAF

ESMK 200531Z 2006/2015 30015KT 9999 SCT030 TEMPO 2006/2015 31018G30KT=

ESDF (06:50 UTC)

Ronneby flygplats

METAR

ESDF 200650Z 30013KT CAVOK M02/M08 Q1000=

TAF

ESDF 200530Z 2006/2015 31014G27KT CAVOK TEMPO 2010/2015 31016G33KT RMK MIL=

ESMQ (06:50 UTC)

Kalmar Airport

METAR

ESMQ 200650Z 30018KT CAVOK M02/M08 Q0997=

TAF

ESMQ 200530Z 2006/2015 31020G30KT 9999 SCT040=

ESMX (06:50 UTC)

Växjö, Smaland Airport

METAR

ESMX 200650Z AUTO 31017G28KT 9999 NCD M03/M08 Q0999=

TAF

ESMX 200630Z 2007/2015 32018G28KT CAVOK=

ESGJ (06:50 UTC)

Jönköping Airport

METAR

ESGJ 200650Z 32018KT 9999 SCT038 M03/M07 Q1000=

TAF

ESGJ 200530Z 2006/2015 33015G25KT CAVOK BECMG 2006/2008 33017G35KT=

ESSA (06:50 UTC)

Stockholm-Arlanda flygplats

METAR

SN

ESSA 200650Z 32015KT 9999 -SN FEW020 SCT033 M04/M06 Q0990 NOSIG=

TAF

ESSA AMD 200546Z 2006/2106 35020G30KT 9999 SCT030=

ESSB (06:50 UTC)

Stockholm-Bromma flygplats

METAR

ESSB 200650Z 31016KT 9999 OVC042 M03/M05 Q0990=

TAF

SN

ESSB 200530Z 2006/2015 33018G30KT 9999 BKN030 TEMPO 2006/2007 1000 -SN VV014=

ESKN (06:50 UTC)

Stockholm-Skavsta flygplats

METAR

ESKN 200650Z 30014KT 9999 DRSN FEW064 BKN078 M04/M07 Q0993=

TAF

SN

ESKN 200530Z 2006/2106 35020G38KT 9999 BKN040 TEMPO 2006/2008 2000 -SN BLSN=

ESSP (06:50 UTC)

Norrköping flygplats

METAR

ESSP 200650Z 30015KT CAVOK M04/M08 Q0995=

TAF

ESSP 200530Z 2006/2015 30015G25KT CAVOK=

ESSL (06:50 UTC)

Linköping - SAAB Flygplats

METAR

ESSL 200650Z 32019KT CAVOK M04/M08 Q0997=

TAF

ESSL 200530Z 2006/2015 31019G32KT CAVOK=

ESSV (06:50 UTC)

Visby flygplats

METAR

SN

ESSV 200650Z 32029KT 2600 -SN FEW010 BKN026 OVC034 M02/M04 Q0991=

TAF

SN

ESSV AMD 200547Z 2006/2015 32037G50KT 3000 -SN BKN010 TEMPO 2006/2008 0600 SN VV015 BECMG 2006/2007 34025G40KT BECMG 2007/2009 9999 NSW BKN035=

ESOW (06:50 UTC)

Stockholm-Västerås flygplats

METAR

ESOW 200650Z 32017KT CAVOK M03/M08 Q0994=

TAF

ESOW 200630Z 2007/2015 32018G28KT CAVOK=

ESOE (06:50 UTC)

Örebro flygplats

METAR

ESOE 200650Z 30018KT CAVOK M02/M07 Q0998=

TAF

ESOE 200530Z 2006/2015 31015G25KT CAVOK=

ESOK (06:50 UTC)

Karlstad Airport

METAR

ESOK 200650Z 32013KT CAVOK M03/M07 Q1002=

TAF

ESOK 200630Z 2007/2015 31015G25KT CAVOK=

ESSD (06:50 UTC)

Borlänge, Dala Airport

METAR

ESSD 200650Z 33018KT CAVOK M03/M09 Q0996=

TAF

ESSD 200630Z 2007/2015 32018G30KT CAVOK=

ESGR (06:50 UTC)

Skövde flygplats

METAR

ESGR 200650Z AUTO /////KT 9999 FEW045/// SCT078/// M02/M08 Q1001=

TAF

Ingen TAF hittades.

ESIB (06:50 UTC)

Såtenäs

METAR

ESIB 200650Z 32021KT CAVOK M01/M07 Q1004=

TAF

ESIB 200550Z 2006/2015 32022G34KT CAVOK BECMG 2012/2014 32018G28KT RMK MIL=

ESNV (06:50 UTC)

Vilhelmina flygplats

METAR

ESNV 200650Z AUTO 30008KT 270V330 9999 NCD M06/M13 Q0995=

TAF

Ingen TAF hittades.

ESST (06:50 UTC)

Torsby flygplats (Fryklanda)

METAR

ESST 200650Z AUTO 31020KT 9999 NCD M03/M07 Q1003=

TAF

Ingen TAF hittades.

ESUT (06:50 UTC)

Hemavans flygplats

METAR

SN

ESUT 200650Z AUTO 30014KT 7000 -SN ///021/// M07/M10 Q0996=

TAF

Ingen TAF hittades.

ESNX (06:50 UTC)

Arvidsjaur flygplats

METAR

ESNX 200650Z AUTO 28014KT 9999 NCD M07/// Q0991=

TAF

ESNX 200530Z 2006/2015 29015KT CAVOK BECMG 2010/2012 30015G25KT=

ESIA (06:50 UTC)

Karlsborg

METAR

ESIA 200650Z AUTO 33014G25KT 290V020 9999 NCD M02/M07 Q1000=

TAF

Ingen TAF hittades.

ESUP (06:50 UTC)

Pajala

METAR

ESUP 200650Z AUTO 24008KT //// NCD M09/M13 Q0986=

TAF

Ingen TAF hittades.

ESCM (06:50 UTC)

Uppsala

METAR

ESCM 200650Z 33014KT 9999 FEW020 M03/M05 Q0991=

TAF

ESCM 200700Z 2007/2015 33020G32KT 9999 BKN040 RMK MIL=

ESKM (06:50 UTC)

Mora/Siljan

METAR

ESKM 200650Z AUTO 32014KT 9999 NCD M03/M11 Q0999=

TAF

Ingen TAF hittades.

EKRN (06:50 UTC)

Bornholm Airport

METAR

EKRN 200650Z AUTO 30025KT 9999 FEW038/// SCT074/// SCT110/// 01/M04 Q1003=

TAF

SHSNCB

EKRN 200521Z 2006/2015 31025G38KT 9999 BKN030 TEMPO 2006/2015 23018KT 2000 -SHSN SCT012 SCT025CB=

EFIV (06:50 UTC)

Ivalo Airport

METAR

EFIV 200650Z 22012KT CAVOK M10/M12 Q0981=

TAF

SHSNCBTCU

EFIV 200527Z 2006/2015 23010KT CAVOK TEMPO 2009/2012 3000 -SHSN FEW040CB BECMG 2012/2014 31014KT TEMPO 2014/2015 31015G25KT 4000 -SHSN FEW040TCU=

EFKT (06:50 UTC)

Kittilä Airport

METAR

EFKT 200650Z 28006KT CAVOK M08/M11 Q0984=

TAF

SHSNTCU

EFKT 200527Z 2006/2015 30006KT CAVOK PROB40 2009/2012 4000 -SHSN FEW040TCU=

EFRO (06:50 UTC)

Rovaniemi Airport

METAR

EFRO 200650Z 33008KT CAVOK M07/M10 Q0985=

TAF

SHSNTCU

EFRO 200527Z 2006/2106 32010KT CAVOK PROB30 2012/2014 5000 -SHSN FEW045TCU TEMPO 2019/2102 33015G25KT=

EFKE (06:50 UTC)

Kemi-Tornio Airport

METAR

EFKE 200650Z 34005KT CAVOK M05/M09 Q0988=

TAF

EFKE 200527Z 2006/2009 35010KT CAVOK=

EFKS (06:50 UTC)

Kuusamo Airport

METAR

EFKS 200650Z 34007KT CAVOK M04/M07 Q0983=

TAF

EFKS 200527Z 2006/2015 33008KT CAVOK PROB30 2006/2007 BKN010=

EFOU (06:50 UTC)

Oulu Airport

METAR

EFOU 200650Z AUTO 36009KT CAVOK M02/M07 Q0986=

TAF

EFOU 200527Z 2006/2106 35012KT CAVOK TEMPO 2100/2106 33015G25KT=

EFKI (06:50 UTC)

Kajaani Airport

METAR

SN

EFKI 200650Z AUTO 01013KT 3900 -SN BKN006 OVC022 M00/M01 Q0982=

TAF

SN

EFKI 200527Z 2006/2015 36011KT 2000 SN BKN002 BECMG 2006/2008 7000 -SN BKN012 BECMG 2008/2010 CAVOK=

EFKK (06:50 UTC)

Kokkola-Pietarsaari/Kruunupyy Airport

METAR

SN

EFKK 200650Z AUTO 35017KT 9999 -SN FEW026 M01/M04 Q0987=

TAF

SN

EFKK 200527Z 2006/2009 34015KT 9999 -SN BKN040 TEMPO 2006/2007 34018G32KT 4000 TEMPO 2007/2009 34018G32KT=

EFVA (06:50 UTC)

Vaasa Airport

METAR

SHSN

EFVA 200650Z AUTO 35017KT 9999 -SHSN NSC M02/M05 Q0988=

TAF

SN

EFVA 200527Z 2006/2106 36015KT 4000 -SN BKN035 BECMG 2006/2007 9999 NSW TEMPO 2006/2011 34020G32KT TEMPO 2011/2017 34015G25KT TEMPO 2017/2103 34018G30KT TEMPO 2103/2106 34015G25KT=

EFKU (06:50 UTC)

Kuopio Airport

METAR

RA

EFKU 200650Z 16004KT 8000 -RASN BKN002 OVC012 00/M00 Q0980=

TAF

SN

EFKU 200525Z 2006/2106 18005KT 7000 -SN BKN003 BECMG 2006/2007 3000 TEMPO 2007/2011 1100 SN BECMG 2011/2013 35010KT 2500 BKN010 PROB40 TEMPO 2013/2016 36015G25KT 3000 BKN015 BECMG 2016/2018 CAVOK=

EFJY (06:50 UTC)

Jyväskylä Airport

METAR

RA

EFJY 200650Z 13002KT 3000 -RASN SCT003 BKN014 BKN020 00/00 Q0980=

TAF

RA

EFJY AMD 200703Z 2007/2106 13002KT 3000 -RASN SCT003 OVC015 TEMPO 2007/2014 1200 SN VV004 BECMG 2008/2010 35015G25KT BECMG 2014/2016 8000 DRSN=

EFTP (06:50 UTC)

Tampere-Pirkkala Airport

METAR

SN

EFTP 200650Z 35009KT 320V030 3000 -SN BKN006 M01/M01 Q0980 REFZDZ=

TAF

SN

EFTP AMD 200659Z 2006/2106 36010KT 3000 -SN SCT006 OVC015 TEMPO 2006/2012 36015G30KT 1200 SN DRSN VV006 BECMG 2012/2014 36015G30KT 8000 DRSN=

EFPO (06:50 UTC)

Pori Airport

METAR

SN

EFPO 200650Z AUTO 35014G24KT 320V020 3700 -SN OVC008 M02/M03 Q0984=

TAF

SN

EFPO 200534Z 2006/2015 35015KT 6000 -SN OVC007 TEMPO 2006/2010 35015G25KT 2500 SN BKN012 BECMG 2010/2012 9999 BKN015=

EFTU (06:50 UTC)

Turku Airport

METAR

FZDZ

EFTU 200650Z AUTO 36008KT 300V050 2700 -FZDZSN OVC004 M00/M00 Q0980=

TAF

FZDZ

EFTU 200534Z 2006/2106 35006KT 4000 -FZDZSN BKN003 BECMG 2006/2007 35017G30KT 1100 SN DRSN BKN010 BECMG 2007/2009 3000 -SN BKN015 BECMG 2015/2017 9999 NSW=

EFHK (06:50 UTC)

Helsinki-Vantaa Airport

METAR

SN

EFHK 200650Z 18008KT 3500 -SNRA OVC004 01/00 Q0980 TEMPO 2000=

TAF

SN

EFHK 200534Z 2006/2106 19009KT 4500 -SN BKN005 TEMPO 2007/2015 0800 SN BKN004 BECMG 2015/2017 36015G33KT 2600 DRSN BKN015 BECMG 2017/2019 9999 NSW=

EFMA (06:50 UTC)

Mariehamn Airport

METAR

SN

EFMA 200650Z AUTO 35018G28KT 2400 SN OVC008 M01/M03 Q0985=

TAF

SN

EFMA 200534Z 2006/2015 35018G33KT 2000 SN OVC006 TEMPO 2006/2008 3000 -SN BKN010 BECMG 2008/2010 8000 NSW BKN015 TEMPO 2011/2015 35025G43KT=

EKSB (06:50 UTC)

Sønderborg Airport

METAR

EKSB 200650Z 31019KT 9999 FEW020 02/M03 Q1014=

TAF

EKSB 200603Z 2006/2015 31020G30KT 9999 FEW030 TEMPO 2006/2012 31025G38KT=

EKSP (06:50 UTC)

Vojens Airport

METAR

EKSP 200650Z 31019G30KT 9999 FEW034 01/M05 Q1014 TEMPO 31020G35KT=

TAF

EKSP 200530Z 2006/2106 31020G35KT 9999 SCT020 TEMPO 2006/2010 33025KT BECMG 2010/2012 33015KT TEMPO 2012/2015 34015G28KT BECMG 2015/2017 31010KT=

EKEB (06:50 UTC)

Esbjerg Airport

METAR

EKEB 200650Z AUTO 32021KT 9999 FEW037/// 02/M03 Q1015=

TAF

EKEB 200521Z 2006/2015 33022G35KT 9999 SCT030 TEMPO 2006/2015 33018KT=

EKYT (06:50 UTC)

Aalborg Airport

METAR

EKYT 200650Z AUTO 32013G24KT 300V360 9999 NCD 02/M08 Q1011=

TAF

EKYT 200518Z 2006/2106 32018G32KT 9999 FEW030 BECMG 2013/2015 32015G25KT BECMG 2018/2021 31012KT=

EKKA (06:50 UTC)

Karup Airport

METAR

EKKA 200650Z AUTO 31016KT 9999 NCD 01/M06 Q1013 TEMPO 32022G34KT=

TAF

EKKA 200518Z 2006/2106 32020G34KT 9999 FEW030 TEMPO 2006/2014 32018KT BECMG 2014/2016 32012KT=

EKBI (06:50 UTC)

Billund Airport

METAR

EKBI 200650Z AUTO 30017KT 270V330 9999 NCD 01/M05 Q1014=

TAF

EKBI 200526Z 2006/2106 30020G35KT 9999 FEW030 TEMPO 2006/2015 32018KT BECMG 2015/2018 32008KT=

EKVD (06:50 UTC)

Kolding Airport

METAR

EKVD 200650Z 32016KT 9999 FEW030 01/M04 Q1014=

TAF

Ingen TAF hittades.

EKOD (06:50 UTC)

Odense Airport

METAR

EKOD 200650Z 31019G32KT CAVOK 01/M03 Q1012=

TAF

EKOD 200658Z 2007/2015 32020G35KT 9999 FEW030 TEMPO 2007/2015 33018KT=

EKCH (06:50 UTC)

Copenhagen Airport, Kastrup

METAR

CB

EKCH 200650Z 31012KT 270V340 9999 SCT025CB BKN028 01/M04 Q1007 TEMPO 3000 -SHSN=

TAF

SHSNCB

EKCH 200526Z 2006/2106 30020KT 9999 SCT030 TEMPO 2006/2018 31025G38KT 2000 SHSN BKN020CB=

EKRK (06:50 UTC)

Copenhagen Airport, Roskilde

METAR

RA

EKRK 200650Z AUTO 32017G28KT 290V350 9999 -RA BKN035/// BKN077/// 02/M05 Q1008=

TAF

SHSNCB

EKRK 200521Z 2006/2015 33020G35KT 9999 SCT030 TEMPO 2006/2015 30015KT 2000 SHSN BKN020CB=

ENRY (06:50 UTC)

Moss flygplats, Rygge

METAR

ENRY 200650Z AUTO 33014KT 9999NDV NCD 00/M11 Q1008=

TAF

ENRY 200500Z 2006/2106 34015KT CAVOK TEMPO 2006/2012 34018G28KT BECMG 2020/2022 27005KT=

ENGM (06:50 UTC)

Oslo flygplats, Gardermoen

METAR

ENGM 200650Z 32013G23KT 280V010 9999 FEW020 M02/M11 Q1006 NOSIG=

TAF

ENGM 200500Z 2006/2106 34012KT CAVOK TEMPO 2006/2016 34020G30KT BECMG 2018/2020 27010KT=

ENTO (06:50 UTC)

Sandefjord flygplats, Torp

METAR

ENTO 200650Z 32015KT CAVOK M00/M13 Q1008 TEMPO 33018G28KT=

TAF

ENTO 200500Z 2006/2106 33015KT CAVOK TEMPO 2006/2015 33018G28KT BECMG 2018/2020 27010KT=

ENCN (06:50 UTC)

Kristiansand flygplats, Kjevik

METAR

ENCN 200650Z 32016G28KT 290V360 CAVOK 01/M11 Q1013=

TAF

ENCN 200500Z 2006/2015 32012KT CAVOK TEMPO 2006/2012 32018G28KT=

ENZV (06:50 UTC)

Stavanger-Sola flygplats

METAR

ENZV 200650Z 34017G29KT 9999 FEW013 SCT053 BKN064 M00/M04 Q1018 RESN TEMPO 0900 SHSN VV009=

TAF

SHSNTCU

ENZV 200500Z 2006/2106 33025KT 9999 -SHSN FEW020TCU BKN030 TEMPO 2006/2009 0900 SHSN VV009 TEMPO 2006/2015 34028G38KT BECMG 2015/2017 35015KT BECMG 2022/2024 VRB05KT TEMPO 2104/2106 3000 -SNRA BKN008=

ENHD (06:50 UTC)

Haugesund flygplats, Karmøy

METAR

SNCB

ENHD 200650Z 35028G42KT 9999 5000SE -SN FEW006 FEW015CB BKN022 01/M03 Q1019 RESN=

TAF

SHSNCB

ENHD 200500Z 2006/2015 33025G35KT 9999 FEW020CB BKN030 TEMPO 2006/2010 33035G45KT 0900 SHSN VV009 TEMPO 2009/2013 2000 SHSN VV010=

ENBR (06:50 UTC)

Bergen flygplats, Flesland

METAR

SHRACB

ENBR 200650Z 35018G30KT 9999 VCSH FEW010 FEW012CB SCT020 M01/M06 Q1018 RESN TEMPO 0900 SHSN VV009 RMK WIND 1200FT 34036G50KT=

TAF

SHSNTCU

ENBR AMD 200626Z 2006/2106 34020KT 9999 -SHSN FEW015TCU BKN020 TEMPO 2006/2009 34025G35KT 0900 SHSN VV008 TEMPO 2009/2013 2000 SHSN VV010 BECMG 2016/2018 34010KT BECMG 2020/2022 VRB05KT TEMPO 2104/2106 2000 -SNRA BKN006=

ENBL (06:50 UTC)

Førde flygplats, Bringeland

METAR

SHSN

ENBL 200650Z 32008KT 7000 -SHSN SCT010 BKN025 M04/M06 Q1016=

TAF

Ingen TAF hittades.

ENOV (06:50 UTC)

Ørsta-Volda flygplats, Hovden

METAR

ENOV 200650Z 07009G19KT 330V130 5000 -SHSG BLSN FEW010 BKN025 M01/M07 Q1018 RMK WIND 2090FT 32025G36KT=

TAF

Ingen TAF hittades.

ENML (06:50 UTC)

Molde flygplats, Årø

METAR

SHRA

ENML 200650Z 36010G22KT 300V040 9999 VCSH FEW015 SCT021 BKN035 M01/M07 Q1016=

TAF

SHSNCB

ENML AMD 200641Z 2006/2015 30012KT 9999 -SHSN FEW012CB BKN025 TEMPO 2006/2015 31018G30KT 0700 SHSN VV007=

ENKB (06:50 UTC)

Kristiansund flygplats, Kvernberget

METAR

SHSN

ENKB 200650Z 32013G27KT 270V360 9999 SHSN FEW008 SCT030 BKN044 M01/M06 Q1014 RMK WIND 745FT 34044G59KT=

TAF

SHSNCB

ENKB 200500Z 2006/2015 33015G25KT 9999 -SHSN FEW015CB BKN030 TEMPO 2006/2012 31025G35KT TEMPO 2006/2015 0700 SHSN VV008=

ENRO (06:50 UTC)

Røros flygplats

METAR

SHSN

ENRO 200650Z 32020KT 0800 R13/1600U R31/1900U SHSN VV007 M08/M10 Q1004=

TAF

SHSN

ENRO 200500Z 2006/2015 31018KT 7000 -SHSN FEW010 BKN020 TEMPO 2006/2012 30025G35KT 0500 SHSN BLSN VV004=

ENVA (06:50 UTC)

Trondheim flygplats, Værnes

METAR

SHSN

ENVA 200650Z 31017KT 7000 -SHSN SCT010 BKN015 M02/M06 Q1010 TEMPO 34020G32KT 0500 SHSN VV006 RMK WIND 670FT 32030KT=

TAF

SHSNCB

ENVA 200500Z 2006/2106 32015KT 9999 -SHSN FEW015CB BKN030 TEMPO 2006/2106 34020G32KT 0500 SHSN VV006=

ENOL (06:50 UTC)

Ørland flygplats

METAR

SHSNCB

ENOL 200650Z 34032G42KT 2000 -SHSN BLSN FEW008 SCT012CB BKN040 M00/M05 Q1010 TEMPO 34032G42KT 0200 +SHSNGS BLSN VV002=

TAF

SHSNCB

ENOL 200500Z 2006/2106 34028KT 8000 -SHSN DRSN FEW012CB BKN020 TEMPO 2006/2012 0200 +SHSNGS VV002 TEMPO 2006/2020 34032G42KT BLSN TEMPO 2012/2105 1000 SHSNRA VV008 BECMG 2020/2022 27025KT TEMPO 2101/2105 32025G35KT BECMG 2103/2106 01008KT=

ENRM (06:50 UTC)

Rørvik flygplats, Ryum

METAR

SHSNTCU

ENRM 200650Z 33013G25KT 280V010 9999 -SHSN FEW010 FEW020TCU SCT040 M01/M06 Q1006=

TAF

SHSNCB

ENRM AMD 200640Z 2006/2015 31012KT 9999 FEW020CB SCT030 TEMPO 2006/2015 33022G35KT 0400 SHSNGS VV004=

ENBN (06:50 UTC)

Brønnøysund flygplats, Brønnøy

METAR

SHSN

ENBN 200650Z 32015KT 290V350 3000 SHSN VV006 M01/M02 Q1003=

TAF

SHSNCB

ENBN 200500Z 2006/2015 32015KT 9999 FEW015 BKN030 TEMPO 2006/2015 32020G35KT 1000 SHSN VV007 TEMPO 2006/2015 SCT015CB PROB30 TEMPO 2006/2009 32030G45KT 0400 +SHSNGS VV004=

ENRA (06:20 UTC)

Mo i Rana flygplats, Røssvoll

METAR

SN

ENRA 200620Z 32004KT 220V010 1000 SN VV006 M03/M04 Q0998=

TAF

SHSNCB

ENRA 200500Z 2006/2015 27009KT 9999 FEW015 BKN040 TEMPO 2006/2015 28015G25KT 1000 SHSN VV007 TEMPO 2006/2015 SCT020CB=

ENBO (06:50 UTC)

Bodö flygplats

METAR

SHRA

ENBO 200650Z 33017KT 300V010 9999 VCSH FEW035 BKN047 01/M04 Q0996=

TAF

TSSHSNCB

ENBO 200500Z 2006/2106 30020KT 9999 FEW015 BKN030 TEMPO 2006/2018 33025G40KT 0700 +SHSNGS VV004 TEMPO 2006/2018 SCT020CB PROB30 TEMPO 2006/2009 TS=

ENSH (06:50 UTC)

Svolvær flygplats, Helle

METAR

SHRA

ENSH 200650Z 33023G31KT 300V360 9999 VCSH SCT017 BKN023 01/M05 Q0995 RMK WIND 150FT 33023G35KT 290V360=

TAF

SHSNCB

ENSH 200500Z 2006/2015 34020G35KT 9999 FEW015CB BKN020 TEMPO 2006/2015 1200 SHSN VV008=

ENAN (06:50 UTC)

Andøya flygplats

METAR

SHRA

ENAN 200650Z 34028G39KT 9000 DRSN VCSH FEW026 SCT038 01/M04 Q0992=

TAF

SHSN

ENAN 200500Z 2006/2106 34025KT 9999 FEW010 BKN040 TEMPO 2006/2106 0400 +SHSN VV003 TEMPO 2006/2021 34035G45KT BLSN TEMPO 2021/2103 34025G35KT DRSN=

ENEV (06:50 UTC)

Harstad-Narvik flygplats

METAR

ENEV 200650Z 32006KT 280V360 9999 FEW034 SCT053 BKN076 M00/M03 Q0993 RMK WIND 1400FT 27016KT=

TAF

SHSNCB

ENEV 200500Z 2006/2015 30009KT 9999 -SHSN SCT015CB BKN025 TEMPO 2006/2015 33015G30KT 0700 SHSN VV006=

ENDU (06:50 UTC)

Bardufoss flygplats

METAR

SHSN

ENDU 200650Z 28013KT 3000 -SHSN VV014 M02/M02 Q0990 TEMPO 28015G25KT 1200 SHSN VV008 RMK WIND 1100FT 29022KT WIND 2200FT 30030KT=

TAF

SHSNCB

ENDU 200500Z 2006/2106 27009KT 9999 -SHSN FEW020 BKN030 TEMPO 2006/2017 FEW015CB TEMPO 2006/2017 28015G25KT 0500 +SHSN VV004=

ENTC (06:50 UTC)

Tromsø flygplats

METAR

SNCB

ENTC 200650Z 32022KT 5000 -SN FEW015CB SCT021 BKN032 01/M03 Q0988 TEMPO 31025G35KT 1000 SHSNGS DRSN VV007 RMK WIND 2600FT /////KT=

TAF

SHSNCB

ENTC 200500Z 2006/2106 33018KT 9999 FEW015 BKN020 TEMPO 2006/2015 31025G35KT 1000 SHSNGS DRSN VV007 TEMPO 2006/2015 BKN020CB PROB30 2006/2008 0500 +SHSNGS VV004 BECMG 2101/2103 20008KT=

ENAT (06:50 UTC)

Alta flygplats

METAR

SHSN

ENAT 200650Z 30015KT 3300 -SHSN VV017 M01/M02 Q0980 RMK WIND 700FT 30020G31KT=

TAF

SHSN

ENAT 200500Z 2006/2015 30009KT 9999 BKN020 TEMPO 2006/2015 32018G28KT 1000 SHSN VV007=

ENNA (06:50 UTC)

Lakselv flygplats

METAR

SN

ENNA 200650Z 26020G35KT 220V290 0800 R16/P2000D R34/1700D SN VV011 M01/M02 Q0977 RMK WIND 1800FT 28047KT=

TAF

SHSNCB

ENNA AMD 200652Z 2006/2106 28015KT 9999 -SHSN FEW010 BKN040 TEMPO 2006/2009 29020G30KT 0700 SHSN VV007 TEMPO 2006/2015 SCT015CB TEMPO 2009/2015 32025G40KT 0700 SHSN BLSN VV006=

ENHF (06:50 UTC)

Hammerfest flygplats

METAR

SHRA

ENHF 200650Z 35010G24KT 280V040 9999 VCSH FEW008 BKN016 01/01 Q0977 RMK WIND 1254FT 33033KT=

TAF

SHSNCB

ENHF AMD 200648Z 2006/2015 32009KT 9999 FEW015 BKN030 TEMPO 2006/2015 34020G35KT 0400 +SHSN BLSN VV004 TEMPO 2006/2015 SCT020CB=

ENKR (06:50 UTC)

Kirkenes Airport, Høybuktmoen

METAR

ENKR 200650Z 19006KT 160V250 CAVOK M09/M12 Q0979 RMK WIND 731FT 21010KT=

TAF

SN

ENKR 200500Z 2006/2015 20009KT 9999 FEW040 TEMPO 2010/2014 2000 SN VV009=

ENLK (06:50 UTC)

Leknes Airport

METAR

SHSN

ENLK 200650Z 33030G44KT 1000 SHSNGS VV005 M01/M02 Q0997=

TAF

Ingen TAF hittades.

ENNO (06:50 UTC)

Notodden Airport, Tuven

METAR

ENNO 200650Z 29019KT 9999 FEW030 M00/M12 Q1011=

TAF

Ingen TAF hittades.

ENST (06:50 UTC)

Sandnessjøen Airport, Stokka

METAR

SHSN

ENST 200650Z 34017G32KT 290V030 0400 +SHSN VV003 M00/M01 Q1002 RMK WIND 300FT 32025G55KT=

TAF

Ingen TAF hittades.

ENSB (06:50 UTC)

Svalbard Airport, Longyear

METAR

ENSB 200650Z VRB03KT 9999 FEW030 SCT080 M08/M13 Q0998 RMK WIND 1400FT 09005KT=

TAF

ENSB 200500Z 2006/2106 12008KT 9999 FEW030 TEMPO 2007/2017 36010KT=

ENSK (06:50 UTC)

Stokmarknes Airport, Skagen

METAR

SHSN

ENSK 200650Z 33014KT 9999 -SHSN FEW010 SCT050 01/M07 Q0994=

TAF

Ingen TAF hittades.

ENSR (06:50 UTC)

Sørkjosen Airport

METAR

SHSN

ENSR 200650Z 29017KT 7000 -SHSN FEW016 SCT049 BKN150 02/M04 Q0984 RMK WIND 1119FT 28033KT=

TAF

Ingen TAF hittades.

ENNM (06:50 UTC)

Namsos Airport, Høknesøra

METAR

ENNM 200650Z 29007KT 9999 SCT045 M02/M05 Q1007=

TAF

Ingen TAF hittades.